sensor_id;sensor_type;location;lat;lon;timestamp;P1;durP1;ratioP1;P2;durP2;ratioP2
38513;SDS011;24282;48.400;10.808;2023-05-07T00:00:16;2.77;;;1.80;;
38513;SDS011;24282;48.400;10.808;2023-05-07T00:02:44;3.37;;;1.90;;
38513;SDS011;24282;48.400;10.808;2023-05-07T00:05:13;3.08;;;2.15;;
38513;SDS011;24282;48.400;10.808;2023-05-07T00:07:39;3.50;;;1.93;;
38513;SDS011;24282;48.400;10.808;2023-05-07T00:10:05;3.47;;;2.07;;
38513;SDS011;24282;48.400;10.808;2023-05-07T00:12:32;3.70;;;1.83;;
38513;SDS011;24282;48.400;10.808;2023-05-07T00:15:04;4.23;;;2.07;;
38513;SDS011;24282;48.400;10.808;2023-05-07T00:17:30;4.60;;;2.00;;
38513;SDS011;24282;48.400;10.808;2023-05-07T00:19:56;2.63;;;1.93;;
38513;SDS011;24282;48.400;10.808;2023-05-07T00:22:22;3.77;;;2.10;;
38513;SDS011;24282;48.400;10.808;2023-05-07T00:24:47;3.00;;;1.90;;
38513;SDS011;24282;48.400;10.808;2023-05-07T00:27:13;2.53;;;1.67;;
38513;SDS011;24282;48.400;10.808;2023-05-07T00:29:41;3.60;;;2.20;;
38513;SDS011;24282;48.400;10.808;2023-05-07T00:32:07;3.97;;;1.87;;
38513;SDS011;24282;48.400;10.808;2023-05-07T00:34:33;2.27;;;1.83;;
38513;SDS011;24282;48.400;10.808;2023-05-07T00:36:59;4.07;;;1.80;;
38513;SDS011;24282;48.400;10.808;2023-05-07T00:39:24;2.87;;;1.83;;
38513;SDS011;24282;48.400;10.808;2023-05-07T00:41:50;1.90;;;1.50;;
38513;SDS011;24282;48.400;10.808;2023-05-07T00:44:16;2.80;;;1.87;;
38513;SDS011;24282;48.400;10.808;2023-05-07T00:46:43;4.23;;;2.20;;
38513;SDS011;24282;48.400;10.808;2023-05-07T00:49:10;3.27;;;1.90;;
38513;SDS011;24282;48.400;10.808;2023-05-07T00:51:36;3.67;;;1.83;;
38513;SDS011;24282;48.400;10.808;2023-05-07T00:54:02;5.03;;;2.60;;
38513;SDS011;24282;48.400;10.808;2023-05-07T00:56:28;9.10;;;1.90;;
38513;SDS011;24282;48.400;10.808;2023-05-07T00:58:54;4.90;;;2.30;;
38513;SDS011;24282;48.400;10.808;2023-05-07T01:01:20;3.77;;;2.10;;
38513;SDS011;24282;48.400;10.808;2023-05-07T01:03:46;4.23;;;2.03;;
38513;SDS011;24282;48.400;10.808;2023-05-07T01:06:12;3.10;;;2.20;;
38513;SDS011;24282;48.400;10.808;2023-05-07T01:08:41;2.87;;;1.80;;
38513;SDS011;24282;48.400;10.808;2023-05-07T01:11:08;2.77;;;2.03;;
38513;SDS011;24282;48.400;10.808;2023-05-07T01:13:35;3.13;;;2.10;;
38513;SDS011;24282;48.400;10.808;2023-05-07T01:16:02;4.10;;;1.87;;
38513;SDS011;24282;48.400;10.808;2023-05-07T01:18:28;2.80;;;2.40;;
38513;SDS011;24282;48.400;10.808;2023-05-07T01:20:58;4.20;;;2.20;;
38513;SDS011;24282;48.400;10.808;2023-05-07T01:23:26;3.53;;;2.40;;
38513;SDS011;24282;48.400;10.808;2023-05-07T01:25:53;2.70;;;1.87;;
38513;SDS011;24282;48.400;10.808;2023-05-07T01:28:21;4.77;;;2.10;;
38513;SDS011;24282;48.400;10.808;2023-05-07T01:30:49;3.07;;;2.10;;
38513;SDS011;24282;48.400;10.808;2023-05-07T01:33:20;3.17;;;1.80;;
38513;SDS011;24282;48.400;10.808;2023-05-07T01:35:48;2.60;;;1.90;;
38513;SDS011;24282;48.400;10.808;2023-05-07T01:38:17;3.20;;;2.30;;
38513;SDS011;24282;48.400;10.808;2023-05-07T01:40:44;2.77;;;2.30;;
38513;SDS011;24282;48.400;10.808;2023-05-07T01:43:11;2.90;;;2.00;;
38513;SDS011;24282;48.400;10.808;2023-05-07T01:45:38;4.53;;;2.43;;
38513;SDS011;24282;48.400;10.808;2023-05-07T01:48:04;3.13;;;2.00;;
38513;SDS011;24282;48.400;10.808;2023-05-07T01:50:31;2.93;;;2.07;;
38513;SDS011;24282;48.400;10.808;2023-05-07T01:52:58;2.73;;;2.00;;
38513;SDS011;24282;48.400;10.808;2023-05-07T01:55:24;4.80;;;1.93;;
38513;SDS011;24282;48.400;10.808;2023-05-07T01:57:50;3.07;;;1.90;;
38513;SDS011;24282;48.400;10.808;2023-05-07T02:00:16;2.53;;;1.70;;
38513;SDS011;24282;48.400;10.808;2023-05-07T02:02:43;4.77;;;2.40;;
38513;SDS011;24282;48.400;10.808;2023-05-07T02:05:20;3.17;;;1.70;;
38513;SDS011;24282;48.400;10.808;2023-05-07T02:07:51;3.37;;;1.90;;
38513;SDS011;24282;48.400;10.808;2023-05-07T02:10:17;2.17;;;1.63;;
38513;SDS011;24282;48.400;10.808;2023-05-07T02:12:43;3.67;;;2.07;;
38513;SDS011;24282;48.400;10.808;2023-05-07T02:15:08;3.60;;;2.00;;
38513;SDS011;24282;48.400;10.808;2023-05-07T02:17:38;2.70;;;1.97;;
38513;SDS011;24282;48.400;10.808;2023-05-07T02:20:22;2.30;;;1.87;;
38513;SDS011;24282;48.400;10.808;2023-05-07T02:22:48;2.00;;;1.53;;
38513;SDS011;24282;48.400;10.808;2023-05-07T02:25:14;2.73;;;2.07;;
38513;SDS011;24282;48.400;10.808;2023-05-07T02:27:40;2.67;;;1.97;;
38513;SDS011;24282;48.400;10.808;2023-05-07T02:30:06;2.53;;;2.17;;
38513;SDS011;24282;48.400;10.808;2023-05-07T02:32:32;3.23;;;1.90;;
38513;SDS011;24282;48.400;10.808;2023-05-07T02:34:58;2.47;;;1.97;;
38513;SDS011;24282;48.400;10.808;2023-05-07T02:37:23;3.13;;;1.90;;
38513;SDS011;24282;48.400;10.808;2023-05-07T02:39:49;3.27;;;2.10;;
38513;SDS011;24282;48.400;10.808;2023-05-07T02:42:15;2.77;;;2.00;;
38513;SDS011;24282;48.400;10.808;2023-05-07T02:44:41;2.70;;;2.07;;
38513;SDS011;24282;48.400;10.808;2023-05-07T02:47:07;3.33;;;2.37;;
38513;SDS011;24282;48.400;10.808;2023-05-07T02:49:34;2.80;;;2.20;;
38513;SDS011;24282;48.400;10.808;2023-05-07T02:52:00;3.23;;;1.90;;
38513;SDS011;24282;48.400;10.808;2023-05-07T02:54:26;4.77;;;1.90;;
38513;SDS011;24282;48.400;10.808;2023-05-07T02:56:52;4.70;;;2.20;;
38513;SDS011;24282;48.400;10.808;2023-05-07T02:59:17;2.70;;;2.00;;
38513;SDS011;24282;48.400;10.808;2023-05-07T03:01:43;2.83;;;2.00;;
38513;SDS011;24282;48.400;10.808;2023-05-07T03:04:10;3.03;;;2.40;;
38513;SDS011;24282;48.400;10.808;2023-05-07T03:06:36;3.07;;;2.17;;
38513;SDS011;24282;48.400;10.808;2023-05-07T03:09:02;4.10;;;1.90;;
38513;SDS011;24282;48.400;10.808;2023-05-07T03:11:28;2.33;;;1.60;;
38513;SDS011;24282;48.400;10.808;2023-05-07T03:13:54;3.20;;;1.87;;
38513;SDS011;24282;48.400;10.808;2023-05-07T03:16:21;4.43;;;2.00;;
38513;SDS011;24282;48.400;10.808;2023-05-07T03:18:47;4.43;;;2.37;;
38513;SDS011;24282;48.400;10.808;2023-05-07T03:21:12;2.57;;;1.70;;
38513;SDS011;24282;48.400;10.808;2023-05-07T03:23:38;2.70;;;2.17;;
38513;SDS011;24282;48.400;10.808;2023-05-07T03:26:04;3.47;;;1.80;;
38513;SDS011;24282;48.400;10.808;2023-05-07T03:28:30;3.83;;;2.10;;
38513;SDS011;24282;48.400;10.808;2023-05-07T03:30:59;3.10;;;1.87;;
38513;SDS011;24282;48.400;10.808;2023-05-07T03:33:25;1.73;;;1.50;;
38513;SDS011;24282;48.400;10.808;2023-05-07T03:35:53;3.40;;;2.30;;
38513;SDS011;24282;48.400;10.808;2023-05-07T03:38:22;2.53;;;1.87;;
38513;SDS011;24282;48.400;10.808;2023-05-07T03:40:48;2.27;;;1.73;;
38513;SDS011;24282;48.400;10.808;2023-05-07T03:43:14;5.80;;;2.33;;
38513;SDS011;24282;48.400;10.808;2023-05-07T03:45:44;2.83;;;1.93;;
38513;SDS011;24282;48.400;10.808;2023-05-07T03:48:21;3.70;;;2.07;;
38513;SDS011;24282;48.400;10.808;2023-05-07T03:50:48;3.40;;;2.20;;
38513;SDS011;24282;48.400;10.808;2023-05-07T03:53:15;3.67;;;1.93;;
38513;SDS011;24282;48.400;10.808;2023-05-07T03:55:41;2.57;;;1.97;;
38513;SDS011;24282;48.400;10.808;2023-05-07T03:58:07;2.77;;;2.10;;
38513;SDS011;24282;48.400;10.808;2023-05-07T04:00:33;5.63;;;1.80;;
38513;SDS011;24282;48.400;10.808;2023-05-07T04:03:08;2.87;;;1.50;;
38513;SDS011;24282;48.400;10.808;2023-05-07T04:05:34;2.50;;;2.03;;
38513;SDS011;24282;48.400;10.808;2023-05-07T04:08:02;3.37;;;2.00;;
38513;SDS011;24282;48.400;10.808;2023-05-07T04:10:36;2.40;;;2.10;;
38513;SDS011;24282;48.400;10.808;2023-05-07T04:13:06;2.73;;;2.00;;
38513;SDS011;24282;48.400;10.808;2023-05-07T04:15:33;2.67;;;1.60;;
38513;SDS011;24282;48.400;10.808;2023-05-07T04:17:59;2.70;;;1.90;;
38513;SDS011;24282;48.400;10.808;2023-05-07T04:20:24;2.60;;;1.73;;
38513;SDS011;24282;48.400;10.808;2023-05-07T04:22:57;2.58;;;1.90;;
38513;SDS011;24282;48.400;10.808;2023-05-07T04:25:23;2.17;;;1.87;;
38513;SDS011;24282;48.400;10.808;2023-05-07T04:27:54;3.37;;;1.80;;
38513;SDS011;24282;48.400;10.808;2023-05-07T04:30:21;3.93;;;1.80;;
38513;SDS011;24282;48.400;10.808;2023-05-07T04:32:46;2.30;;;1.70;;
38513;SDS011;24282;48.400;10.808;2023-05-07T04:35:13;3.33;;;2.17;;
38513;SDS011;24282;48.400;10.808;2023-05-07T04:37:40;2.63;;;1.80;;
38513;SDS011;24282;48.400;10.808;2023-05-07T04:40:08;3.80;;;1.87;;
38513;SDS011;24282;48.400;10.808;2023-05-07T04:42:35;3.97;;;2.37;;
38513;SDS011;24282;48.400;10.808;2023-05-07T04:45:02;3.93;;;2.20;;
38513;SDS011;24282;48.400;10.808;2023-05-07T04:47:30;2.80;;;2.10;;
38513;SDS011;24282;48.400;10.808;2023-05-07T04:49:57;3.63;;;2.07;;
38513;SDS011;24282;48.400;10.808;2023-05-07T04:52:23;4.20;;;1.90;;
38513;SDS011;24282;48.400;10.808;2023-05-07T04:54:49;2.50;;;2.00;;
38513;SDS011;24282;48.400;10.808;2023-05-07T04:57:15;3.47;;;2.17;;
38513;SDS011;24282;48.400;10.808;2023-05-07T04:59:43;4.17;;;2.20;;
38513;SDS011;24282;48.400;10.808;2023-05-07T05:02:12;3.90;;;2.50;;
38513;SDS011;24282;48.400;10.808;2023-05-07T05:04:38;3.27;;;2.40;;
38513;SDS011;24282;48.400;10.808;2023-05-07T05:07:04;3.27;;;2.67;;
38513;SDS011;24282;48.400;10.808;2023-05-07T05:09:30;3.77;;;2.80;;
38513;SDS011;24282;48.400;10.808;2023-05-07T05:11:56;3.67;;;2.43;;
38513;SDS011;24282;48.400;10.808;2023-05-07T05:14:22;4.83;;;2.57;;
38513;SDS011;24282;48.400;10.808;2023-05-07T05:16:49;4.73;;;2.80;;
38513;SDS011;24282;48.400;10.808;2023-05-07T05:19:14;5.37;;;3.27;;
38513;SDS011;24282;48.400;10.808;2023-05-07T05:21:42;4.20;;;3.30;;
38513;SDS011;24282;48.400;10.808;2023-05-07T05:24:08;5.00;;;3.30;;
38513;SDS011;24282;48.400;10.808;2023-05-07T05:26:34;3.80;;;3.20;;
38513;SDS011;24282;48.400;10.808;2023-05-07T05:29:01;3.63;;;3.13;;
38513;SDS011;24282;48.400;10.808;2023-05-07T05:31:29;3.77;;;3.20;;
38513;SDS011;24282;48.400;10.808;2023-05-07T05:33:54;4.17;;;3.00;;
38513;SDS011;24282;48.400;10.808;2023-05-07T05:36:20;7.63;;;3.20;;
38513;SDS011;24282;48.400;10.808;2023-05-07T05:38:48;3.73;;;3.10;;
38513;SDS011;24282;48.400;10.808;2023-05-07T05:41:13;4.43;;;3.13;;
38513;SDS011;24282;48.400;10.808;2023-05-07T05:43:39;3.97;;;2.90;;
38513;SDS011;24282;48.400;10.808;2023-05-07T05:46:05;4.07;;;3.27;;
38513;SDS011;24282;48.400;10.808;2023-05-07T05:48:32;5.37;;;3.40;;
38513;SDS011;24282;48.400;10.808;2023-05-07T05:50:59;5.07;;;3.57;;
38513;SDS011;24282;48.400;10.808;2023-05-07T05:53:25;4.20;;;3.20;;
38513;SDS011;24282;48.400;10.808;2023-05-07T05:55:51;5.23;;;3.70;;
38513;SDS011;24282;48.400;10.808;2023-05-07T05:58:17;6.10;;;3.37;;
38513;SDS011;24282;48.400;10.808;2023-05-07T06:00:49;3.22;;;2.83;;
38513;SDS011;24282;48.400;10.808;2023-05-07T06:03:18;4.43;;;3.63;;
38513;SDS011;24282;48.400;10.808;2023-05-07T06:05:44;4.13;;;3.40;;
38513;SDS011;24282;48.400;10.808;2023-05-07T06:08:10;4.50;;;3.53;;
38513;SDS011;24282;48.400;10.808;2023-05-07T06:10:36;4.53;;;3.40;;
38513;SDS011;24282;48.400;10.808;2023-05-07T06:13:03;5.07;;;3.53;;
38513;SDS011;24282;48.400;10.808;2023-05-07T06:15:31;3.77;;;3.37;;
38513;SDS011;24282;48.400;10.808;2023-05-07T06:18:01;4.63;;;3.40;;
38513;SDS011;24282;48.400;10.808;2023-05-07T06:20:27;6.00;;;3.43;;
38513;SDS011;24282;48.400;10.808;2023-05-07T06:22:53;5.80;;;3.50;;
38513;SDS011;24282;48.400;10.808;2023-05-07T06:25:19;4.87;;;3.50;;
38513;SDS011;24282;48.400;10.808;2023-05-07T06:27:45;4.23;;;3.23;;
38513;SDS011;24282;48.400;10.808;2023-05-07T06:30:10;4.30;;;3.03;;
38513;SDS011;24282;48.400;10.808;2023-05-07T06:32:36;4.10;;;3.22;;
38513;SDS011;24282;48.400;10.808;2023-05-07T06:35:02;3.90;;;3.20;;
38513;SDS011;24282;48.400;10.808;2023-05-07T06:37:28;3.97;;;3.47;;
38513;SDS011;24282;48.400;10.808;2023-05-07T06:39:59;3.90;;;3.50;;
38513;SDS011;24282;48.400;10.808;2023-05-07T06:42:25;4.00;;;3.23;;
38513;SDS011;24282;48.400;10.808;2023-05-07T06:44:56;4.03;;;3.33;;
38513;SDS011;24282;48.400;10.808;2023-05-07T06:47:22;5.67;;;3.60;;
38513;SDS011;24282;48.400;10.808;2023-05-07T06:49:51;3.75;;;3.22;;
38513;SDS011;24282;48.400;10.808;2023-05-07T06:52:20;4.70;;;3.23;;
38513;SDS011;24282;48.400;10.808;2023-05-07T06:54:48;3.78;;;3.22;;
38513;SDS011;24282;48.400;10.808;2023-05-07T06:57:16;3.83;;;3.22;;
38513;SDS011;24282;48.400;10.808;2023-05-07T06:59:42;4.22;;;3.10;;
38513;SDS011;24282;48.400;10.808;2023-05-07T07:02:08;4.20;;;3.80;;
38513;SDS011;24282;48.400;10.808;2023-05-07T07:04:34;4.95;;;3.17;;
38513;SDS011;24282;48.400;10.808;2023-05-07T07:07:04;4.88;;;3.17;;
38513;SDS011;24282;48.400;10.808;2023-05-07T07:09:31;4.00;;;3.20;;
38513;SDS011;24282;48.400;10.808;2023-05-07T07:11:58;5.30;;;3.90;;
38513;SDS011;24282;48.400;10.808;2023-05-07T07:14:25;4.75;;;3.97;;
38513;SDS011;24282;48.400;10.808;2023-05-07T07:16:52;3.95;;;3.47;;
38513;SDS011;24282;48.400;10.808;2023-05-07T07:19:19;6.38;;;4.32;;
38513;SDS011;24282;48.400;10.808;2023-05-07T07:21:48;4.30;;;3.80;;
38513;SDS011;24282;48.400;10.808;2023-05-07T07:24:14;3.50;;;3.10;;
38513;SDS011;24282;48.400;10.808;2023-05-07T07:26:45;4.43;;;3.83;;
38513;SDS011;24282;48.400;10.808;2023-05-07T07:29:12;4.45;;;3.72;;
38513;SDS011;24282;48.400;10.808;2023-05-07T07:31:39;4.45;;;4.05;;
38513;SDS011;24282;48.400;10.808;2023-05-07T07:34:05;4.35;;;3.75;;
38513;SDS011;24282;48.400;10.808;2023-05-07T07:36:31;4.10;;;3.20;;
38513;SDS011;24282;48.400;10.808;2023-05-07T07:38:57;4.50;;;4.07;;
38513;SDS011;24282;48.400;10.808;2023-05-07T07:41:23;3.97;;;3.15;;
38513;SDS011;24282;48.400;10.808;2023-05-07T07:43:53;4.90;;;3.50;;
38513;SDS011;24282;48.400;10.808;2023-05-07T07:46:20;4.07;;;3.28;;
38513;SDS011;24282;48.400;10.808;2023-05-07T07:48:45;3.58;;;3.13;;
38513;SDS011;24282;48.400;10.808;2023-05-07T07:51:11;3.75;;;2.78;;
38513;SDS011;24282;48.400;10.808;2023-05-07T07:53:38;6.40;;;3.97;;
38513;SDS011;24282;48.400;10.808;2023-05-07T07:56:04;5.95;;;3.88;;
38513;SDS011;24282;48.400;10.808;2023-05-07T07:58:32;4.18;;;3.78;;
38513;SDS011;24282;48.400;10.808;2023-05-07T08:01:00;4.65;;;3.42;;
38513;SDS011;24282;48.400;10.808;2023-05-07T08:03:26;4.78;;;3.25;;
38513;SDS011;24282;48.400;10.808;2023-05-07T08:05:56;4.45;;;3.45;;
38513;SDS011;24282;48.400;10.808;2023-05-07T08:08:23;3.78;;;3.35;;
38513;SDS011;24282;48.400;10.808;2023-05-07T08:10:49;3.33;;;2.90;;
38513;SDS011;24282;48.400;10.808;2023-05-07T08:13:23;4.25;;;2.88;;
38513;SDS011;24282;48.400;10.808;2023-05-07T08:15:49;4.05;;;3.65;;
38513;SDS011;24282;48.400;10.808;2023-05-07T08:18:15;5.70;;;3.15;;
38513;SDS011;24282;48.400;10.808;2023-05-07T08:20:42;3.92;;;3.25;;
38513;SDS011;24282;48.400;10.808;2023-05-07T08:23:12;3.45;;;2.90;;
38513;SDS011;24282;48.400;10.808;2023-05-07T08:25:39;5.65;;;3.40;;
38513;SDS011;24282;48.400;10.808;2023-05-07T08:28:05;5.13;;;3.58;;
38513;SDS011;24282;48.400;10.808;2023-05-07T08:30:31;3.88;;;3.28;;
38513;SDS011;24282;48.400;10.808;2023-05-07T08:32:57;3.40;;;2.65;;
38513;SDS011;24282;48.400;10.808;2023-05-07T08:35:23;3.80;;;2.67;;
38513;SDS011;24282;48.400;10.808;2023-05-07T08:37:49;3.95;;;2.58;;
38513;SDS011;24282;48.400;10.808;2023-05-07T08:40:16;3.10;;;2.40;;
38513;SDS011;24282;48.400;10.808;2023-05-07T08:42:42;3.08;;;2.22;;
38513;SDS011;24282;48.400;10.808;2023-05-07T08:45:10;4.18;;;2.60;;
38513;SDS011;24282;48.400;10.808;2023-05-07T08:47:47;3.90;;;2.40;;
38513;SDS011;24282;48.400;10.808;2023-05-07T08:50:20;2.33;;;1.95;;
38513;SDS011;24282;48.400;10.808;2023-05-07T08:52:47;4.57;;;2.00;;
38513;SDS011;24282;48.400;10.808;2023-05-07T08:55:14;3.72;;;2.17;;
38513;SDS011;24282;48.400;10.808;2023-05-07T08:57:41;3.35;;;2.08;;
38513;SDS011;24282;48.400;10.808;2023-05-07T09:00:09;2.55;;;1.92;;
38513;SDS011;24282;48.400;10.808;2023-05-07T09:02:37;3.20;;;1.67;;
38513;SDS011;24282;48.400;10.808;2023-05-07T09:05:04;3.10;;;1.42;;
38513;SDS011;24282;48.400;10.808;2023-05-07T09:07:30;2.70;;;1.40;;
38513;SDS011;24282;48.400;10.808;2023-05-07T09:09:57;3.00;;;1.42;;
38513;SDS011;24282;48.400;10.808;2023-05-07T09:12:24;2.13;;;1.50;;
38513;SDS011;24282;48.400;10.808;2023-05-07T09:14:50;2.70;;;1.70;;
38513;SDS011;24282;48.400;10.808;2023-05-07T09:17:16;2.45;;;1.75;;
38513;SDS011;24282;48.400;10.808;2023-05-07T09:19:45;3.50;;;2.30;;
38513;SDS011;24282;48.400;10.808;2023-05-07T09:22:13;2.47;;;1.80;;
38513;SDS011;24282;48.400;10.808;2023-05-07T09:24:49;2.55;;;1.60;;
38513;SDS011;24282;48.400;10.808;2023-05-07T09:27:18;3.25;;;2.00;;
38513;SDS011;24282;48.400;10.808;2023-05-07T09:29:44;3.10;;;1.80;;
38513;SDS011;24282;48.400;10.808;2023-05-07T09:32:11;1.98;;;1.40;;
38513;SDS011;24282;48.400;10.808;2023-05-07T09:34:37;2.85;;;1.75;;
38513;SDS011;24282;48.400;10.808;2023-05-07T09:37:06;2.60;;;1.58;;
38513;SDS011;24282;48.400;10.808;2023-05-07T09:39:42;2.80;;;1.60;;
38513;SDS011;24282;48.400;10.808;2023-05-07T09:42:09;2.15;;;1.48;;
38513;SDS011;24282;48.400;10.808;2023-05-07T09:44:36;2.83;;;1.17;;
38513;SDS011;24282;48.400;10.808;2023-05-07T09:47:07;3.88;;;1.50;;
38513;SDS011;24282;48.400;10.808;2023-05-07T09:49:39;3.13;;;1.05;;
38513;SDS011;24282;48.400;10.808;2023-05-07T09:52:10;1.38;;;0.85;;
38513;SDS011;24282;48.400;10.808;2023-05-07T09:54:40;4.43;;;1.05;;
38513;SDS011;24282;48.400;10.808;2023-05-07T09:57:11;1.95;;;0.90;;
38513;SDS011;24282;48.400;10.808;2023-05-07T09:59:40;2.35;;;1.00;;
38513;SDS011;24282;48.400;10.808;2023-05-07T10:02:10;1.90;;;0.98;;
38513;SDS011;24282;48.400;10.808;2023-05-07T10:04:44;2.03;;;1.05;;
38513;SDS011;24282;48.400;10.808;2023-05-07T10:07:11;1.45;;;0.90;;
38513;SDS011;24282;48.400;10.808;2023-05-07T10:09:39;0.60;;;0.60;;
38513;SDS011;24282;48.400;10.808;2023-05-07T10:12:12;3.20;;;0.85;;
38513;SDS011;24282;48.400;10.808;2023-05-07T10:14:38;1.33;;;0.85;;
38513;SDS011;24282;48.400;10.808;2023-05-07T10:17:04;1.63;;;0.90;;
38513;SDS011;24282;48.400;10.808;2023-05-07T10:19:32;3.42;;;1.00;;
38513;SDS011;24282;48.400;10.808;2023-05-07T10:22:00;1.00;;;0.70;;
38513;SDS011;24282;48.400;10.808;2023-05-07T10:24:32;3.50;;;1.08;;
38513;SDS011;24282;48.400;10.808;2023-05-07T10:27:01;4.05;;;0.80;;
38513;SDS011;24282;48.400;10.808;2023-05-07T10:32:11;1.77;;;0.85;;
38513;SDS011;24282;48.400;10.808;2023-05-07T10:34:45;2.13;;;1.00;;
38513;SDS011;24282;48.400;10.808;2023-05-07T10:37:15;0.93;;;0.63;;
38513;SDS011;24282;48.400;10.808;2023-05-07T10:39:42;2.05;;;0.80;;
38513;SDS011;24282;48.400;10.808;2023-05-07T10:42:13;1.95;;;0.77;;
38513;SDS011;24282;48.400;10.808;2023-05-07T10:44:46;1.50;;;0.70;;
38513;SDS011;24282;48.400;10.808;2023-05-07T10:47:19;1.40;;;0.63;;
38513;SDS011;24282;48.400;10.808;2023-05-07T10:52:21;2.03;;;0.90;;
38513;SDS011;24282;48.400;10.808;2023-05-07T10:57:41;1.65;;;0.85;;
38513;SDS011;24282;48.400;10.808;2023-05-07T11:05:25;0.82;;;0.60;;
38513;SDS011;24282;48.400;10.808;2023-05-07T11:08:02;1.00;;;0.70;;
38513;SDS011;24282;48.400;10.808;2023-05-07T11:10:49;2.50;;;0.85;;
38513;SDS011;24282;48.400;10.808;2023-05-07T11:13:40;1.35;;;0.85;;
38513;SDS011;24282;48.400;10.808;2023-05-07T11:16:21;1.30;;;0.80;;
38513;SDS011;24282;48.400;10.808;2023-05-07T11:18:54;1.10;;;0.60;;
38513;SDS011;24282;48.400;10.808;2023-05-07T11:24:39;1.20;;;0.90;;
38513;SDS011;24282;48.400;10.808;2023-05-07T11:27:08;1.42;;;0.75;;
38513;SDS011;24282;48.400;10.808;2023-05-07T11:29:34;2.10;;;0.85;;
38513;SDS011;24282;48.400;10.808;2023-05-07T11:32:07;1.45;;;0.75;;
38513;SDS011;24282;48.400;10.808;2023-05-07T11:34:42;2.05;;;1.05;;
38513;SDS011;24282;48.400;10.808;2023-05-07T11:37:09;1.52;;;0.75;;
38513;SDS011;24282;48.400;10.808;2023-05-07T11:39:44;1.20;;;0.75;;
38513;SDS011;24282;48.400;10.808;2023-05-07T11:44:59;1.55;;;0.70;;
38513;SDS011;24282;48.400;10.808;2023-05-07T11:47:25;1.75;;;0.82;;
38513;SDS011;24282;48.400;10.808;2023-05-07T11:49:52;2.10;;;0.70;;
38513;SDS011;24282;48.400;10.808;2023-05-07T11:52:20;1.75;;;0.88;;
38513;SDS011;24282;48.400;10.808;2023-05-07T11:57:23;1.33;;;0.70;;
38513;SDS011;24282;48.400;10.808;2023-05-07T11:59:59;2.08;;;0.60;;
38513;SDS011;24282;48.400;10.808;2023-05-07T12:02:37;1.80;;;0.70;;
38513;SDS011;24282;48.400;10.808;2023-05-07T12:05:03;1.45;;;0.90;;
38513;SDS011;24282;48.400;10.808;2023-05-07T12:07:29;1.50;;;0.80;;
38513;SDS011;24282;48.400;10.808;2023-05-07T12:10:03;1.80;;;0.80;;
38513;SDS011;24282;48.400;10.808;2023-05-07T12:12:41;0.95;;;0.60;;
38513;SDS011;24282;48.400;10.808;2023-05-07T12:15:11;1.60;;;0.90;;
38513;SDS011;24282;48.400;10.808;2023-05-07T12:17:46;2.20;;;0.73;;
38513;SDS011;24282;48.400;10.808;2023-05-07T12:22:40;1.88;;;0.80;;
38513;SDS011;24282;48.400;10.808;2023-05-07T12:25:06;0.98;;;0.70;;
38513;SDS011;24282;48.400;10.808;2023-05-07T12:27:32;1.55;;;0.77;;
38513;SDS011;24282;48.400;10.808;2023-05-07T12:30:03;1.15;;;0.90;;
38513;SDS011;24282;48.400;10.808;2023-05-07T12:32:30;0.88;;;0.60;;
38513;SDS011;24282;48.400;10.808;2023-05-07T12:34:55;2.03;;;0.90;;
38513;SDS011;24282;48.400;10.808;2023-05-07T12:37:24;1.50;;;0.93;;
38513;SDS011;24282;48.400;10.808;2023-05-07T12:40:12;1.38;;;0.88;;
38513;SDS011;24282;48.400;10.808;2023-05-07T12:42:37;1.20;;;0.70;;
38513;SDS011;24282;48.400;10.808;2023-05-07T12:45:08;1.60;;;0.75;;
38513;SDS011;24282;48.400;10.808;2023-05-07T12:47:38;0.88;;;0.60;;
38513;SDS011;24282;48.400;10.808;2023-05-07T12:50:07;2.22;;;0.80;;
38513;SDS011;24282;48.400;10.808;2023-05-07T12:52:33;2.35;;;0.80;;
38513;SDS011;24282;48.400;10.808;2023-05-07T12:55:06;1.20;;;0.75;;
38513;SDS011;24282;48.400;10.808;2023-05-07T12:57:39;1.27;;;0.75;;
38513;SDS011;24282;48.400;10.808;2023-05-07T13:00:07;1.48;;;0.70;;
38513;SDS011;24282;48.400;10.808;2023-05-07T13:02:40;1.33;;;0.90;;
38513;SDS011;24282;48.400;10.808;2023-05-07T13:05:07;1.05;;;0.68;;
38513;SDS011;24282;48.400;10.808;2023-05-07T13:07:33;1.77;;;0.70;;
38513;SDS011;24282;48.400;10.808;2023-05-07T13:09:59;2.28;;;0.90;;
38513;SDS011;24282;48.400;10.808;2023-05-07T13:13:59;1.02;;;0.85;;
38513;SDS011;24282;48.400;10.808;2023-05-07T13:16:24;1.20;;;1.05;;
38513;SDS011;24282;48.400;10.808;2023-05-07T13:18:50;1.60;;;1.00;;
38513;SDS011;24282;48.400;10.808;2023-05-07T13:21:16;1.05;;;0.90;;
38513;SDS011;24282;48.400;10.808;2023-05-07T13:23:41;1.30;;;0.80;;
38513;SDS011;24282;48.400;10.808;2023-05-07T13:26:07;1.67;;;0.95;;
38513;SDS011;24282;48.400;10.808;2023-05-07T13:28:33;3.08;;;0.98;;
38513;SDS011;24282;48.400;10.808;2023-05-07T13:30:58;1.77;;;0.80;;
38513;SDS011;24282;48.400;10.808;2023-05-07T13:33:24;1.63;;;0.85;;
38513;SDS011;24282;48.400;10.808;2023-05-07T13:35:50;2.15;;;1.10;;
38513;SDS011;24282;48.400;10.808;2023-05-07T13:38:15;1.48;;;0.80;;
38513;SDS011;24282;48.400;10.808;2023-05-07T13:40:41;1.80;;;1.00;;
38513;SDS011;24282;48.400;10.808;2023-05-07T13:43:07;1.90;;;1.20;;
38513;SDS011;24282;48.400;10.808;2023-05-07T13:45:33;1.80;;;0.90;;
38513;SDS011;24282;48.400;10.808;2023-05-07T13:47:58;1.00;;;0.75;;
38513;SDS011;24282;48.400;10.808;2023-05-07T13:50:24;1.83;;;0.90;;
38513;SDS011;24282;48.400;10.808;2023-05-07T13:52:51;3.03;;;1.00;;
38513;SDS011;24282;48.400;10.808;2023-05-07T13:55:18;1.48;;;1.00;;
38513;SDS011;24282;48.400;10.808;2023-05-07T13:57:44;1.63;;;0.80;;
38513;SDS011;24282;48.400;10.808;2023-05-07T14:00:11;1.58;;;0.90;;
38513;SDS011;24282;48.400;10.808;2023-05-07T14:02:40;1.67;;;0.77;;
38513;SDS011;24282;48.400;10.808;2023-05-07T14:05:06;1.65;;;1.10;;
38513;SDS011;24282;48.400;10.808;2023-05-07T14:07:32;1.25;;;0.80;;
38513;SDS011;24282;48.400;10.808;2023-05-07T14:09:58;1.63;;;0.82;;
38513;SDS011;24282;48.400;10.808;2023-05-07T14:12:24;1.85;;;0.80;;
38513;SDS011;24282;48.400;10.808;2023-05-07T14:14:50;1.85;;;1.05;;
38513;SDS011;24282;48.400;10.808;2023-05-07T14:17:16;1.85;;;1.00;;
38513;SDS011;24282;48.400;10.808;2023-05-07T14:19:42;1.17;;;0.70;;
38513;SDS011;24282;48.400;10.808;2023-05-07T14:22:08;1.63;;;0.90;;
38513;SDS011;24282;48.400;10.808;2023-05-07T14:24:34;1.67;;;0.90;;
38513;SDS011;24282;48.400;10.808;2023-05-07T14:27:00;1.30;;;0.70;;
38513;SDS011;24282;48.400;10.808;2023-05-07T14:29:27;2.80;;;1.20;;
38513;SDS011;24282;48.400;10.808;2023-05-07T14:31:53;1.73;;;0.90;;
38513;SDS011;24282;48.400;10.808;2023-05-07T14:34:19;1.65;;;0.95;;
38513;SDS011;24282;48.400;10.808;2023-05-07T14:36:45;1.65;;;1.00;;
38513;SDS011;24282;48.400;10.808;2023-05-07T14:39:11;0.82;;;0.70;;
38513;SDS011;24282;48.400;10.808;2023-05-07T14:41:36;1.48;;;0.80;;
38513;SDS011;24282;48.400;10.808;2023-05-07T14:44:02;1.88;;;0.82;;
38513;SDS011;24282;48.400;10.808;2023-05-07T14:46:29;1.88;;;1.10;;
38513;SDS011;24282;48.400;10.808;2023-05-07T14:48:56;1.10;;;0.80;;
38513;SDS011;24282;48.400;10.808;2023-05-07T14:51:22;0.82;;;0.80;;
38513;SDS011;24282;48.400;10.808;2023-05-07T14:53:49;1.77;;;0.88;;
38513;SDS011;24282;48.400;10.808;2023-05-07T14:56:15;1.05;;;0.90;;
38513;SDS011;24282;48.400;10.808;2023-05-07T14:58:42;2.30;;;0.90;;
38513;SDS011;24282;48.400;10.808;2023-05-07T15:01:08;2.00;;;1.00;;